Latest Coastal Weather Observations for Gladstone

IDQ60701

Issued at 4:12 pm EST Tuesday 28 March 2017 (issued every 10 minutes, with the page automatically refreshed every 10 minutes)

About coastal observations | Map of coastal stations | Coastal observations for QLD | Marine services | Other Formats
Station Details ID: 039123 Name: GLADSTONE RADAR Lat: -23.86 Lon: 151.26 Height: 74.5 m
Data from the previous 72 hours. | See also: Recent months at Gladstone
Date/Time
EST
Temp
°C
Wind Pressure Rain since
9am
mm
Weather Cloud Vis
km
Sea
Height
m
Swell
Dir  Spd
kts
Gust
kts
hPa Trend Height
m
Period
s
Dir
28/04:00pm 24.7 ESE 14 24 1008.0 - 29.6 - - - - - - -
28/03:30pm 25.3 E 16 23 1008.0 - 26.8 - - - - - - -
28/03:00pm 25.8 ESE 15 20 1007.8 - 25.2 - - - - - - -
28/02:30pm 26.1 E 16 23 1007.9 - 25.2 - - - - - - -
28/02:00pm 25.7 E 17 23 1008.3 - 25.2 - - - - - - -
28/01:30pm 25.5 E 16 23 1008.6 - 25.2 - - - - - - -
28/01:00pm 25.3 E 14 21 1009.0 - 23.8 - - - - - - -
28/12:30pm 24.4 E 12 16 1009.4 - 23.6 - - - - - - -
28/12:00pm 24.6 ENE 13 21 1009.7 - 22.4 Rain - - - - - -
28/11:30am 23.8 ENE 14 24 1010.4 - 20.4 - - - - - - -
28/11:00am 23.4 NNE 8 15 1010.8 - 20.0 - - - - - - -
28/10:30am 24.9 E 16 27 1010.6 - 6.2 - - - - - - -
28/10:18am 25.5 E 18 28 1010.6 - 0.6 - - - - - - -
28/10:00am 25.7 E 16 24 1010.6 - 0.2 - - - - - - -
28/09:30am 26.1 E 16 27 1010.5 - 0.0 - - - - - - -
28/09:28am 26.2 E 16 27 1010.4 - 0.0 - - - - - - -
28/09:00am 26.2 E 19 25 1010.6 - 34.2 - - - - - - -
28/08:36am 25.8 E 18 28 1010.3 - 34.2 - - - - - - -
28/08:30am 25.5 E 15 22 1010.2 - 34.2 - - - - - - -
28/08:00am 24.4 ESE 11 16 1010.2 - 34.2 - - - - - - -
28/07:30am 23.9 E 12 19 1009.9 - 34.2 - - - - - - -
28/07:00am 23.5 ESE 12 19 1009.4 - 32.0 - - - - - - -
28/06:30am 23.3 SE 14 20 1009.2 - 30.0 - - - - - - -
28/06:00am 23.4 SE 10 16 1008.9 - 26.8 Rain - - - - - -
28/05:30am 23.5 SE 11 17 1008.6 - 26.4 - - - - - - -
28/05:00am 23.9 ESE 13 21 1008.3 - 26.4 - - - - - - -
28/04:30am 23.7 ESE 15 21 1008.2 - 26.4 - - - - - - -
28/04:00am 23.4 ESE 15 25 1008.1 - 26.4 - - - - - - -
28/03:33am 23.1 SE 15 25 1008.2 - 26.4 - - - - - - -
28/03:30am 23.1 SE 17 25 1008.2 - 26.4 - - - - - - -
28/03:00am 23.1 SE 13 22 1008.5 - 22.6 Recent precip. - - - - - -
28/02:30am 23.1 SE 12 19 1008.7 - 20.2 - - - - - - -
28/02:00am 23.2 SE 12 18 1009.0 - 20.0 - - - - - - -
28/01:30am 23.4 SE 14 21 1009.2 - 19.8 - - - - - - -
28/01:00am 23.5 SE 12 19 1009.4 - 19.2 - - - - - - -
28/12:39am 23.6 SE 15 25 1009.4 - 19.2 - - - - - - -
28/12:30am 23.5 SE 16 23 1009.7 - 19.0 - - - - - - -
28/12:00am 23.5 SE 14 24 1010.0 - 18.6 Rain - - - - - -
 
Date/Time
EST
Temp
°C
Wind Pressure Rain since
9am
mm
Weather Cloud Vis
km
Sea
Height
m
Swell
Dir  Spd
kts
Gust
kts
hPa Trend Height
m
Period
s
Dir
27/11:30pm 23.9 SE 14 22 1010.3 - 18.2 - - - - - - -
27/11:00pm 23.8 SE 13 20 1010.7 - 18.2 - - - - - - -
27/10:30pm 23.6 SE 15 22 1010.6 - 18.2 - - - - - - -
27/10:00pm 23.4 SE 13 20 1010.9 - 18.2 - - - - - - -
27/09:30pm 23.7 SE 15 24 1011.0 - 18.2 - - - - - - -
27/09:00pm 23.3 SE 13 20 1011.2 - 18.2 - - - - - - -
27/08:30pm 23.1 SE 14 24 1011.2 - 18.2 - - - - - - -
27/08:00pm 23.2 ESE 13 21 1010.8 - 18.2 - - - - - - -
27/07:30pm 23.5 ESE 16 27 1010.3 - 16.2 - - - - - - -
27/07:07pm 23.5 ESE 16 27 1010.2 - 15.6 - - - - - - -
27/07:00pm 23.4 ESE 15 24 1010.4 - 14.8 - - - - - - -
27/06:46pm 23.4 E 15 25 1010.5 - 13.0 - - - - - - -
27/06:30pm 23.7 ESE 13 21 1010.6 - 8.0 - - - - - - -
27/06:00pm 23.6 E 9 13 1010.4 - 5.4 Recent precip. - - - - - -
27/05:30pm 23.7 ESE 14 22 1009.7 - 3.8 - - - - - - -
27/05:00pm 24.0 ESE 14 23 1009.4 - 3.8 - - - - - - -
27/04:43pm 24.4 ESE 15 25 1009.1 - 3.6 - - - - - - -
27/04:30pm 24.3 ESE 13 22 1009.0 - 3.6 - - - - - - -
27/04:00pm 24.6 ESE 13 25 1008.8 - 3.4 - - - - - - -
27/03:30pm 24.1 ESE 16 27 1008.9 - 3.4 - - - - - - -
27/03:00pm 24.7 E 22 32 1008.8 - 3.4 Recent precip. - - - - - -
27/02:40pm 26.1 ESE 17 28 1008.8 - 3.2 - - - - - - -
27/02:30pm 26.4 ESE 15 22 1008.9 - 3.0 - - - - - - -
27/02:00pm 26.1 ESE 18 28 1009.1 - 3.0 - - - - - - -
27/01:45pm 26.0 ESE 17 28 1009.1 - 3.0 - - - - - - -
27/01:30pm 25.8 ESE 12 19 1009.3 - 3.0 - - - - - - -
27/01:15pm 25.5 ESE 17 27 1009.5 - 3.0 - - - - - - -
27/01:00pm 25.2 ESE 17 23 1009.5 - 3.0 - - - - - - -
27/12:30pm 24.5 ESE 17 25 1010.3 - 1.8 - - - - - - -
27/12:04pm 24.7 E 23 33 1010.7 - 1.6 - - - - - - -
27/12:00pm 25.2 E 20 33 1010.7 - 1.6 Rain - - - - - -
27/11:56am 25.4 ESE 15 29 1010.6 - 1.6 - - - - - - -
27/11:30am 26.0 ESE 19 25 1011.0 - 0.0 - - - - - - -
27/11:13am 27.0 ESE 16 27 1011.1 - 0.0 - - - - - - -
27/11:00am 27.3 ESE 19 27 1011.4 - 0.0 - - - - - - -
27/10:30am 26.5 ESE 20 30 1011.3 - 0.0 - - - - - - -
27/10:07am 27.3 ESE 19 30 1011.4 - 0.0 - - - - - - -
27/10:00am 27.1 ESE 18 27 1011.5 - 0.0 - - - - - - -
27/09:34am 26.7 ESE 15 27 1011.4 - 0.0 - - - - - - -
27/09:30am 26.8 ESE 15 24 1011.4 - 0.0 - - - - - - -
27/09:02am 26.6 ESE 15 26 1011.6 - 0.0 - - - - - - -
27/09:00am 26.5 ESE 15 24 1011.5 - 1.4 - - - - - - -
27/08:30am 25.7 ESE 12 19 1011.7 - 1.4 - - - - - - -
27/08:00am 24.7 SE 14 21 1011.5 - 1.4 - - - - - - -
27/07:30am 24.0 SE 13 18 1011.3 - 1.4 - - - - - - -
27/07:00am 23.7 SE 14 21 1010.9 - 1.2 - - - - - - -
27/06:30am 23.6 SE 11 16 1010.7 - 1.0 - - - - - - -
27/06:00am 24.0 SE 11 17 1010.5 - 0.0 - - - - - - -
27/05:30am 24.4 ESE 12 18 1010.1 - 0.0 - - - - - - -
27/05:00am 24.4 SE 11 17 1010.0 - 0.0 - - - - - - -
27/04:30am 24.3 SE 9 17 1010.0 - 0.0 - - - - - - -
27/04:00am 24.4 SE 11 16 1010.0 - 0.0 - - - - - - -
27/03:30am 24.5 SE 11 17 1009.9 - 0.0 - - - - - - -
27/03:00am 24.5 SE 10 16 1010.2 - 0.0 - - - - - - -
27/02:30am 25.0 SE 13 23 1010.3 - 0.0 - - - - - - -
27/02:00am 24.9 SE 12 19 1010.6 - 0.0 - - - - - - -
27/01:30am 25.0 ESE 11 16 1011.1 - 0.0 - - - - - - -
27/01:00am 25.0 ESE 11 17 1011.4 - 0.0 - - - - - - -
27/12:30am 25.1 ESE 12 19 1011.7 - 0.0 - - - - - - -
27/12:00am 25.4 SE 13 21 1012.0 - 0.0 - - - - - - -
 
Date/Time
EST
Temp
°C
Wind Pressure Rain since
9am
mm
Weather Cloud Vis
km
Sea
Height
m
Swell
Dir  Spd
kts
Gust
kts
hPa Trend Height
m
Period
s
Dir
26/11:30pm 25.5 SE 12 19 1012.3 - 0.0 - - - - - - -
26/11:00pm 25.3 SE 10 15 1012.6 - 0.0 - - - - - - -
26/10:30pm 25.9 SE 12 19 1012.7 - 0.0 - - - - - - -
26/10:00pm 25.9 ESE 13 20 1012.8 - 0.0 - - - - - - -
26/09:30pm 25.9 ESE 13 21 1012.9 - 0.0 - - - - - - -
26/09:00pm 26.0 ESE 12 17 1012.8 - 0.0 - - - - - - -
26/08:30pm 26.1 ESE 11 21 1012.5 - 0.0 - - - - - - -
26/08:00pm 26.0 ESE 13 21 1012.0 - 0.0 - - - - - - -
26/07:30pm 26.1 ESE 13 21 1011.7 - 0.0 - - - - - - -
26/07:00pm 26.3 ESE 11 16 1011.3 - 0.0 - - - - - - -
26/06:30pm 26.4 ESE 11 19 1011.0 - 0.0 - - - - - - -
26/06:00pm 26.6 ESE 12 20 1010.8 - 0.0 - - - - - - -
26/05:30pm 26.9 ESE 14 22 1010.5 - 0.0 - - - - - - -
26/05:00pm 27.2 ESE 16 22 1010.1 - 0.0 - - - - - - -
26/04:30pm 27.6 ESE 15 21 1010.0 - 0.0 - - - - - - -
26/04:00pm 27.8 ESE 17 24 1009.7 - 0.0 - - - - - - -
26/03:41pm 28.2 ESE 15 25 1009.7 - 0.0 - - - - - - -
26/03:30pm 28.4 E 17 23 1009.7 - 0.0 - - - - - - -
26/03:15pm 28.4 E 15 25 1009.5 - 0.0 - - - - - - -
26/03:00pm 28.4 E 14 23 1009.5 - 0.0 - - - - - - -
26/02:30pm 28.2 E 16 24 1009.8 - 0.0 - - - - - - -
26/02:00pm 28.7 E 18 26 1010.0 - 0.0 - - - - - - -
26/01:30pm 29.2 E 16 22 1010.2 - 0.0 - - - - - - -
26/01:00pm 28.6 ESE 18 25 1010.4 - 0.0 - - - - - - -
26/12:30pm 29.3 ESE 19 27 1010.9 - 0.0 - - - - - - -
26/12:12pm 29.6 ESE 17 28 1011.2 - 0.0 - - - - - - -
26/12:00pm 29.3 ESE 16 25 1011.3 - 0.0 - - - - - - -
26/11:30am 28.3 ESE 13 21 1011.9 - 0.0 - - - - - - -
26/11:00am 27.7 ESE 13 22 1012.4 - 0.0 - - - - - - -
26/10:30am 28.3 ESE 10 16 1012.7 - 0.0 - - - - - - -
26/10:00am 26.9 SE 11 18 1012.8 - 0.0 - - - - - - -
26/09:30am 27.2 SE 11 19 1012.8 - 0.0 - - - - - - -
26/09:00am 26.5 ESE 13 20 1012.7 - 0.0 - - - - - - -
26/08:30am 25.6 SE 13 18 1012.7 - 0.0 - - - - - - -
26/08:00am 24.6 SE 11 16 1012.7 - 0.0 - - - - - - -
26/07:30am 24.2 SE 12 16 1012.4 - 0.0 - - - - - - -
26/07:00am 23.8 SE 10 16 1012.2 - 0.0 - - - - - - -
26/06:30am 23.7 SE 13 19 1011.9 - 0.0 - - - - - - -
26/06:00am 23.4 SE 11 17 1011.6 - 0.0 - - - - - - -
26/05:30am 23.3 SE 10 16 1011.4 - 0.0 - - - - - - -
26/05:00am 23.3 SE 10 16 1011.2 - 0.0 - - - - - - -
26/04:30am 23.4 SE 11 17 1010.7 - 0.0 - - - - - - -
26/04:00am 23.5 SE 11 17 1010.5 - 0.0 - - - - - - -
26/03:30am 23.1 SE 10 16 1010.3 - 0.0 - - - - - - -
26/03:00am 23.6 SE 13 18 1010.4 - 0.0 - - - - - - -
26/02:30am 23.4 SE 10 15 1010.9 - 0.0 - - - - - - -
26/02:00am 23.4 SE 10 15 1011.3 - 0.0 - - - - - - -
26/01:30am 23.4 SSE 9 13 1011.6 - 0.0 - - - - - - -
26/01:00am 23.6 SSE 10 15 1012.0 - 0.0 - - - - - - -
26/12:30am 23.8 SE 10 19 1012.5 - 0.0 - - - - - - -
26/12:00am 23.9 SE 11 17 1012.9 - 0.0 - - - - - - -
 
Date/Time
EST
Temp
°C
Wind Pressure Rain since
9am
mm
Weather Cloud Vis
km
Sea
Height
m
Swell
Dir  Spd
kts
Gust
kts
hPa Trend Height
m
Period
s
Dir
25/11:30pm 24.1 SE 11 18 1013.2 - 0.0 - - - - - - -
25/11:00pm 24.3 SE 12 21 1013.4 - 0.0 - - - - - - -
25/10:30pm 24.3 SE 10 16 1013.6 - 0.0 - - - - - - -
25/10:00pm 24.5 SE 11 17 1013.5 - 0.0 - - - - - - -
25/09:30pm 25.2 SE 10 15 1013.4 - 0.0 - - - - - - -
25/09:00pm 25.3 ESE 10 16 1013.4 - 0.0 - - - - - - -
25/08:30pm 25.4 ESE 13 22 1013.0 - 0.0 - - - - - - -
25/08:00pm 25.9 ESE 12 19 1012.8 - 0.0 - - - - - - -
25/07:30pm 25.9 ESE 9 13 1012.5 - 0.0 - - - - - - -
25/07:00pm 26.1 ESE 12 22 1012.1 - 0.0 - - - - - - -
25/06:30pm 26.3 ESE 14 21 1011.9 - 0.0 - - - - - - -
25/06:00pm 26.4 E 16 22 1011.7 - 0.0 - - - - - - -
25/05:30pm 26.6 E 13 20 1011.7 - 0.0 - - - - - - -
25/05:00pm 27.2 E 15 20 1011.1 - 0.0 - - - - - - -
25/04:30pm 27.8 ENE 15 20 1010.8 - 0.0 - - - - - - -

Other Formats:

Comma delimited format used in spreadsheet applications
http://www.bom.gov.au/fwo/IDQ60701/IDQ60701.94380.axf

JavaScript Object Notation format (JSON) in row-major order
http://www.bom.gov.au/fwo/IDQ60701/IDQ60701.94380.json